sensor_id;sensor_type;location;lat;lon;timestamp;pressure;altitude;pressure_sealevel;temperature;humidity
6208;BME280;3137;51.550;7.060;2023-08-20T00:00:19;101744.19;;;18.40;86.64
6208;BME280;3137;51.550;7.060;2023-08-20T00:02:46;101748.59;;;18.41;87.06
6208;BME280;3137;51.550;7.060;2023-08-20T00:05:13;101745.69;;;18.43;86.67
6208;BME280;3137;51.550;7.060;2023-08-20T00:07:40;101738.94;;;18.39;86.86
6208;BME280;3137;51.550;7.060;2023-08-20T00:10:07;101747.44;;;18.36;86.45
6208;BME280;3137;51.550;7.060;2023-08-20T00:12:34;101751.41;;;18.48;85.87
6208;BME280;3137;51.550;7.060;2023-08-20T00:15:02;101748.63;;;18.33;85.88
6208;BME280;3137;51.550;7.060;2023-08-20T00:17:33;101748.66;;;18.25;86.58
6208;BME280;3137;51.550;7.060;2023-08-20T00:20:01;101756.78;;;18.25;86.39
6208;BME280;3137;51.550;7.060;2023-08-20T00:22:27;101757.66;;;18.17;86.39
6208;BME280;3137;51.550;7.060;2023-08-20T00:24:54;101753.25;;;18.16;86.41
6208;BME280;3137;51.550;7.060;2023-08-20T00:27:21;101750.56;;;18.16;86.97
6208;BME280;3137;51.550;7.060;2023-08-20T00:29:48;101745.88;;;18.10;87.13
6208;BME280;3137;51.550;7.060;2023-08-20T00:32:15;101752.28;;;18.09;87.11
6208;BME280;3137;51.550;7.060;2023-08-20T00:34:42;101748.94;;;18.07;87.39
6208;BME280;3137;51.550;7.060;2023-08-20T00:37:08;101742.00;;;18.05;87.47
6208;BME280;3137;51.550;7.060;2023-08-20T00:39:34;101743.69;;;18.06;87.99
6208;BME280;3137;51.550;7.060;2023-08-20T00:42:01;101746.88;;;18.09;88.65
6208;BME280;3137;51.550;7.060;2023-08-20T00:44:28;101744.84;;;18.11;88.00
6208;BME280;3137;51.550;7.060;2023-08-20T00:46:55;101737.59;;;18.12;88.30
6208;BME280;3137;51.550;7.060;2023-08-20T00:49:22;101741.44;;;18.17;88.26
6208;BME280;3137;51.550;7.060;2023-08-20T00:51:50;101743.97;;;18.19;88.01
6208;BME280;3137;51.550;7.060;2023-08-20T00:54:16;101756.81;;;18.17;87.92
6208;BME280;3137;51.550;7.060;2023-08-20T00:56:44;101755.97;;;18.16;88.05
6208;BME280;3137;51.550;7.060;2023-08-20T00:59:11;101756.81;;;18.17;88.13
6208;BME280;3137;51.550;7.060;2023-08-20T01:01:38;101749.75;;;18.16;88.14
6208;BME280;3137;51.550;7.060;2023-08-20T01:04:04;101746.72;;;18.11;88.40
6208;BME280;3137;51.550;7.060;2023-08-20T01:09:21;101747.72;;;18.10;88.19
6208;BME280;3137;51.550;7.060;2023-08-20T01:11:54;101739.44;;;18.11;88.43
6208;BME280;3137;51.550;7.060;2023-08-20T01:14:22;101745.69;;;18.12;88.53
6208;BME280;3137;51.550;7.060;2023-08-20T01:16:48;101754.00;;;18.10;88.60
6208;BME280;3137;51.550;7.060;2023-08-20T01:19:17;101741.31;;;18.11;88.89
6208;BME280;3137;51.550;7.060;2023-08-20T01:22:12;101750.28;;;18.11;89.11
6208;BME280;3137;51.550;7.060;2023-08-20T01:24:46;101751.75;;;18.14;88.99
6208;BME280;3137;51.550;7.060;2023-08-20T01:27:28;101757.88;;;18.16;88.91
6208;BME280;3137;51.550;7.060;2023-08-20T01:29:59;101755.81;;;18.18;88.92
6208;BME280;3137;51.550;7.060;2023-08-20T01:32:26;101752.25;;;18.17;88.54
6208;BME280;3137;51.550;7.060;2023-08-20T01:34:53;101761.38;;;18.16;88.48
6208;BME280;3137;51.550;7.060;2023-08-20T01:37:20;101766.47;;;18.19;88.49
6208;BME280;3137;51.550;7.060;2023-08-20T01:39:48;101767.47;;;18.18;87.87
6208;BME280;3137;51.550;7.060;2023-08-20T01:42:14;101761.09;;;18.11;87.86
6208;BME280;3137;51.550;7.060;2023-08-20T01:44:41;101757.69;;;18.09;87.79
6208;BME280;3137;51.550;7.060;2023-08-20T01:47:07;101763.13;;;18.09;88.05
6208;BME280;3137;51.550;7.060;2023-08-20T01:49:33;101750.44;;;18.10;88.08
6208;BME280;3137;51.550;7.060;2023-08-20T01:52:00;101757.69;;;18.09;89.00
6208;BME280;3137;51.550;7.060;2023-08-20T01:54:26;101753.31;;;18.08;88.59
6208;BME280;3137;51.550;7.060;2023-08-20T01:56:55;101756.69;;;18.10;89.20
6208;BME280;3137;51.550;7.060;2023-08-20T01:59:22;101753.81;;;18.12;89.03
6208;BME280;3137;51.550;7.060;2023-08-20T02:01:49;101745.88;;;18.10;88.93
6208;BME280;3137;51.550;7.060;2023-08-20T02:04:16;101754.63;;;18.12;88.74
6208;BME280;3137;51.550;7.060;2023-08-20T02:06:42;101748.22;;;18.13;88.76
6208;BME280;3137;51.550;7.060;2023-08-20T02:09:09;101755.16;;;18.16;89.05
6208;BME280;3137;51.550;7.060;2023-08-20T02:11:35;101758.34;;;18.19;89.09
6208;BME280;3137;51.550;7.060;2023-08-20T02:14:02;101757.81;;;18.24;89.25
6208;BME280;3137;51.550;7.060;2023-08-20T02:16:29;101757.63;;;18.25;89.69
6208;BME280;3137;51.550;7.060;2023-08-20T02:18:55;101761.84;;;18.28;89.53
6208;BME280;3137;51.550;7.060;2023-08-20T02:21:24;101775.88;;;18.32;89.18
6208;BME280;3137;51.550;7.060;2023-08-20T02:23:50;101773.53;;;18.29;89.63
6208;BME280;3137;51.550;7.060;2023-08-20T02:26:17;101780.44;;;18.31;89.15
6208;BME280;3137;51.550;7.060;2023-08-20T02:28:43;101789.91;;;18.35;89.34
6208;BME280;3137;51.550;7.060;2023-08-20T02:31:09;101794.78;;;18.40;89.65
6208;BME280;3137;51.550;7.060;2023-08-20T02:33:37;101795.44;;;18.42;89.27
6208;BME280;3137;51.550;7.060;2023-08-20T02:36:04;101793.09;;;18.39;89.36
6208;BME280;3137;51.550;7.060;2023-08-20T02:38:31;101797.50;;;18.40;89.77
6208;BME280;3137;51.550;7.060;2023-08-20T02:40:57;101796.13;;;18.44;89.64
6208;BME280;3137;51.550;7.060;2023-08-20T02:43:24;101806.91;;;18.52;89.10
6208;BME280;3137;51.550;7.060;2023-08-20T02:45:50;101808.59;;;18.61;88.65
6208;BME280;3137;51.550;7.060;2023-08-20T02:48:17;101805.22;;;18.51;87.96
6208;BME280;3137;51.550;7.060;2023-08-20T02:50:43;101813.75;;;18.40;88.64
6208;BME280;3137;51.550;7.060;2023-08-20T02:53:10;101802.09;;;18.31;88.59
6208;BME280;3137;51.550;7.060;2023-08-20T02:55:36;101805.19;;;18.28;89.49
6208;BME280;3137;51.550;7.060;2023-08-20T02:58:03;101799.06;;;18.26;89.67
6208;BME280;3137;51.550;7.060;2023-08-20T03:00:30;101796.38;;;18.26;89.62
6208;BME280;3137;51.550;7.060;2023-08-20T03:02:56;101796.38;;;18.26;89.93
6208;BME280;3137;51.550;7.060;2023-08-20T03:05:24;101801.78;;;18.26;89.63
6208;BME280;3137;51.550;7.060;2023-08-20T03:07:51;101808.06;;;18.26;89.69
6208;BME280;3137;51.550;7.060;2023-08-20T03:10:17;101800.94;;;18.25;89.80
6208;BME280;3137;51.550;7.060;2023-08-20T03:12:44;101799.28;;;18.24;89.73
6208;BME280;3137;51.550;7.060;2023-08-20T03:15:10;101800.09;;;18.25;89.63
6208;BME280;3137;51.550;7.060;2023-08-20T03:17:37;101807.16;;;18.34;89.37
6208;BME280;3137;51.550;7.060;2023-08-20T03:20:04;101803.41;;;18.43;88.54
6208;BME280;3137;51.550;7.060;2023-08-20T03:22:33;101802.59;;;18.35;89.17
6208;BME280;3137;51.550;7.060;2023-08-20T03:24:59;101800.28;;;18.23;89.95
6208;BME280;3137;51.550;7.060;2023-08-20T03:27:26;101794.72;;;18.17;89.88
6208;BME280;3137;51.550;7.060;2023-08-20T03:29:52;101803.88;;;18.16;89.79
6208;BME280;3137;51.550;7.060;2023-08-20T03:32:19;101798.47;;;18.16;89.92
6208;BME280;3137;51.550;7.060;2023-08-20T03:34:47;101798.47;;;18.16;89.82
6208;BME280;3137;51.550;7.060;2023-08-20T03:37:16;101801.34;;;18.14;90.09
6208;BME280;3137;51.550;7.060;2023-08-20T03:39:43;101810.66;;;18.12;90.28
6208;BME280;3137;51.550;7.060;2023-08-20T03:42:09;101808.97;;;18.11;90.71
6208;BME280;3137;51.550;7.060;2023-08-20T03:44:36;101812.50;;;18.11;89.95
6208;BME280;3137;51.550;7.060;2023-08-20T03:47:03;101803.06;;;18.07;90.11
6208;BME280;3137;51.550;7.060;2023-08-20T03:49:32;101806.78;;;18.06;90.15
6208;BME280;3137;51.550;7.060;2023-08-20T03:51:59;101812.72;;;18.02;90.63
6208;BME280;3137;51.550;7.060;2023-08-20T03:54:28;101816.41;;;18.01;90.70
6208;BME280;3137;51.550;7.060;2023-08-20T03:56:56;101813.72;;;18.01;90.46
6208;BME280;3137;51.550;7.060;2023-08-20T03:59:22;101814.41;;;18.03;90.87
6208;BME280;3137;51.550;7.060;2023-08-20T04:01:49;101818.75;;;18.20;90.53
6208;BME280;3137;51.550;7.060;2023-08-20T04:04:15;101814.84;;;18.22;89.04
6208;BME280;3137;51.550;7.060;2023-08-20T04:06:42;101818.25;;;18.08;89.85
6208;BME280;3137;51.550;7.060;2023-08-20T04:09:08;101818.78;;;18.04;90.02
6208;BME280;3137;51.550;7.060;2023-08-20T04:11:35;101817.97;;;18.03;90.22
6208;BME280;3137;51.550;7.060;2023-08-20T04:14:02;101815.25;;;18.03;90.45
6208;BME280;3137;51.550;7.060;2023-08-20T04:16:29;101826.91;;;18.04;90.09
6208;BME280;3137;51.550;7.060;2023-08-20T04:18:56;101827.56;;;18.06;90.00
6208;BME280;3137;51.550;7.060;2023-08-20T04:21:22;101826.25;;;18.02;90.60
6208;BME280;3137;51.550;7.060;2023-08-20T04:23:49;101828.44;;;17.98;90.12
6208;BME280;3137;51.550;7.060;2023-08-20T04:26:15;101828.78;;;17.95;90.52
6208;BME280;3137;51.550;7.060;2023-08-20T04:28:42;101831.84;;;17.92;90.53
6208;BME280;3137;51.550;7.060;2023-08-20T04:31:08;101830.97;;;17.92;90.26
6208;BME280;3137;51.550;7.060;2023-08-20T04:33:48;101824.72;;;17.91;90.71
6208;BME280;3137;51.550;7.060;2023-08-20T04:36:18;101830.13;;;17.91;90.74
6208;BME280;3137;51.550;7.060;2023-08-20T04:38:45;101824.72;;;17.91;90.82
6208;BME280;3137;51.550;7.060;2023-08-20T04:41:11;101834.19;;;17.95;90.81
6208;BME280;3137;51.550;7.060;2023-08-20T04:43:37;101839.09;;;18.00;89.48
6208;BME280;3137;51.550;7.060;2023-08-20T04:46:04;101847.06;;;17.93;89.16
6208;BME280;3137;51.550;7.060;2023-08-20T04:48:31;101840.31;;;17.89;89.42
6208;BME280;3137;51.550;7.060;2023-08-20T04:50:57;101850.13;;;17.82;89.10
6208;BME280;3137;51.550;7.060;2023-08-20T04:53:25;101855.72;;;17.72;89.75
6208;BME280;3137;51.550;7.060;2023-08-20T04:55:51;101846.06;;;17.70;90.19
6208;BME280;3137;51.550;7.060;2023-08-20T04:58:18;101846.75;;;17.72;90.28
6208;BME280;3137;51.550;7.060;2023-08-20T05:00:45;101854.84;;;17.80;90.17
6208;BME280;3137;51.550;7.060;2023-08-20T05:03:14;101851.31;;;17.79;90.29
6208;BME280;3137;51.550;7.060;2023-08-20T05:05:40;101858.75;;;17.77;90.05
6208;BME280;3137;51.550;7.060;2023-08-20T05:08:07;101857.41;;;17.82;90.16
6208;BME280;3137;51.550;7.060;2023-08-20T05:10:36;101857.22;;;17.83;90.29
6208;BME280;3137;51.550;7.060;2023-08-20T05:13:03;101859.75;;;17.85;90.81
6208;BME280;3137;51.550;7.060;2023-08-20T05:15:30;101854.19;;;17.86;90.80
6208;BME280;3137;51.550;7.060;2023-08-20T05:17:57;101865.16;;;17.93;91.16
6208;BME280;3137;51.550;7.060;2023-08-20T05:20:23;101864.16;;;17.94;90.60
6208;BME280;3137;51.550;7.060;2023-08-20T05:22:50;101865.66;;;17.96;91.24
6208;BME280;3137;51.550;7.060;2023-08-20T05:25:16;101869.03;;;17.98;91.38
6208;BME280;3137;51.550;7.060;2023-08-20T05:27:43;101864.13;;;18.02;91.49
6208;BME280;3137;51.550;7.060;2023-08-20T05:30:09;101856.66;;;18.04;91.78
6208;BME280;3137;51.550;7.060;2023-08-20T05:32:37;101858.84;;;18.08;91.82
6208;BME280;3137;51.550;7.060;2023-08-20T05:35:04;101858.00;;;18.16;92.32
6208;BME280;3137;51.550;7.060;2023-08-20T05:37:31;101860.00;;;18.22;92.28
6208;BME280;3137;51.550;7.060;2023-08-20T05:39:58;101858.47;;;18.27;92.73
6208;BME280;3137;51.550;7.060;2023-08-20T05:42:24;101865.22;;;18.32;92.18
6208;BME280;3137;51.550;7.060;2023-08-20T05:44:57;101859.94;;;18.38;92.30
6208;BME280;3137;51.550;7.060;2023-08-20T05:47:26;101860.28;;;18.43;92.54
6208;BME280;3137;51.550;7.060;2023-08-20T05:49:53;101861.44;;;18.49;92.92
6208;BME280;3137;51.550;7.060;2023-08-20T05:52:20;101862.94;;;18.51;92.82
6208;BME280;3137;51.550;7.060;2023-08-20T05:54:46;101858.25;;;18.53;93.16
6208;BME280;3137;51.550;7.060;2023-08-20T05:57:13;101865.84;;;18.58;93.21
6208;BME280;3137;51.550;7.060;2023-08-20T05:59:41;101859.69;;;18.64;93.32
6208;BME280;3137;51.550;7.060;2023-08-20T06:02:07;101860.19;;;18.67;92.92
6208;BME280;3137;51.550;7.060;2023-08-20T06:04:34;101854.75;;;18.67;93.63
6208;BME280;3137;51.550;7.060;2023-08-20T06:07:00;101852.75;;;18.69;93.71
6208;BME280;3137;51.550;7.060;2023-08-20T06:09:26;101855.09;;;18.73;93.84
6208;BME280;3137;51.550;7.060;2023-08-20T06:11:53;101863.91;;;18.75;93.75
6208;BME280;3137;51.550;7.060;2023-08-20T06:14:19;101867.44;;;18.75;94.13
6208;BME280;3137;51.550;7.060;2023-08-20T06:16:46;101867.44;;;18.75;94.27
6208;BME280;3137;51.550;7.060;2023-08-20T06:19:13;101868.47;;;18.74;94.56
6208;BME280;3137;51.550;7.060;2023-08-20T06:21:39;101876.41;;;18.76;94.74
6208;BME280;3137;51.550;7.060;2023-08-20T06:24:06;101873.53;;;18.77;94.18
6208;BME280;3137;51.550;7.060;2023-08-20T06:26:32;101873.16;;;18.80;94.70
6208;BME280;3137;51.550;7.060;2023-08-20T06:28:59;101867.75;;;18.80;94.88
6208;BME280;3137;51.550;7.060;2023-08-20T06:31:25;101871.97;;;18.83;94.76
6208;BME280;3137;51.550;7.060;2023-08-20T06:33:52;101874.63;;;18.91;94.69
6208;BME280;3137;51.550;7.060;2023-08-20T06:36:18;101873.25;;;18.95;94.50
6208;BME280;3137;51.550;7.060;2023-08-20T06:38:46;101873.38;;;19.01;94.38
6208;BME280;3137;51.550;7.060;2023-08-20T06:41:12;101884.72;;;19.05;94.23
6208;BME280;3137;51.550;7.060;2023-08-20T06:43:39;101888.56;;;19.10;94.12
6208;BME280;3137;51.550;7.060;2023-08-20T06:46:05;101883.63;;;19.14;94.32
6208;BME280;3137;51.550;7.060;2023-08-20T06:48:32;101888.53;;;19.18;93.96
6208;BME280;3137;51.550;7.060;2023-08-20T06:50:58;101886.78;;;19.26;94.61
6208;BME280;3137;51.550;7.060;2023-08-20T06:53:24;101884.41;;;19.31;94.62
6208;BME280;3137;51.550;7.060;2023-08-20T06:55:51;101880.09;;;19.36;94.49
6208;BME280;3137;51.550;7.060;2023-08-20T06:58:17;101881.63;;;19.39;94.44
6208;BME280;3137;51.550;7.060;2023-08-20T07:00:44;101881.94;;;19.44;94.83
6208;BME280;3137;51.550;7.060;2023-08-20T07:03:10;101884.94;;;19.49;94.79
6208;BME280;3137;51.550;7.060;2023-08-20T07:05:37;101882.91;;;19.51;94.51
6208;BME280;3137;51.550;7.060;2023-08-20T07:08:03;101884.41;;;19.53;94.78
6208;BME280;3137;51.550;7.060;2023-08-20T07:10:30;101875.72;;;19.58;94.23
6208;BME280;3137;51.550;7.060;2023-08-20T07:12:56;101882.09;;;19.65;94.69
6208;BME280;3137;51.550;7.060;2023-08-20T07:15:23;101885.78;;;19.72;94.08
6208;BME280;3137;51.550;7.060;2023-08-20T07:17:49;101888.97;;;19.76;94.07
6208;BME280;3137;51.550;7.060;2023-08-20T07:20:16;101880.44;;;19.79;94.57
6208;BME280;3137;51.550;7.060;2023-08-20T07:22:42;101887.03;;;19.84;94.50
6208;BME280;3137;51.550;7.060;2023-08-20T07:25:09;101883.09;;;19.87;94.29
6208;BME280;3137;51.550;7.060;2023-08-20T07:27:35;101889.47;;;19.94;94.24
6208;BME280;3137;51.550;7.060;2023-08-20T07:30:02;101892.84;;;19.96;94.03
6208;BME280;3137;51.550;7.060;2023-08-20T07:32:29;101880.59;;;20.00;94.50
6208;BME280;3137;51.550;7.060;2023-08-20T07:34:55;101883.97;;;20.02;94.32
6208;BME280;3137;51.550;7.060;2023-08-20T07:37:21;101870.69;;;20.07;94.73
6208;BME280;3137;51.550;7.060;2023-08-20T07:39:48;101878.63;;;20.08;94.49
6208;BME280;3137;51.550;7.060;2023-08-20T07:42:14;101884.81;;;20.17;94.06
6208;BME280;3137;51.550;7.060;2023-08-20T07:44:41;101880.69;;;20.21;94.45
6208;BME280;3137;51.550;7.060;2023-08-20T07:47:07;101891.84;;;20.26;94.42
6208;BME280;3137;51.550;7.060;2023-08-20T07:49:34;101882.63;;;20.35;94.39
6208;BME280;3137;51.550;7.060;2023-08-20T07:52:00;101883.44;;;20.50;94.40
6208;BME280;3137;51.550;7.060;2023-08-20T07:54:27;101891.59;;;20.65;94.16
6208;BME280;3137;51.550;7.060;2023-08-20T07:56:54;101887.53;;;20.76;93.78
6208;BME280;3137;51.550;7.060;2023-08-20T07:59:21;101890.63;;;20.87;93.83
6208;BME280;3137;51.550;7.060;2023-08-20T08:01:47;101890.56;;;21.02;93.97
6208;BME280;3137;51.550;7.060;2023-08-20T08:04:14;101888.44;;;21.12;93.61
6208;BME280;3137;51.550;7.060;2023-08-20T08:06:41;101887.66;;;21.18;93.43
6208;BME280;3137;51.550;7.060;2023-08-20T08:09:26;101887.53;;;21.26;93.07
6208;BME280;3137;51.550;7.060;2023-08-20T08:11:52;101887.78;;;21.31;93.26
6208;BME280;3137;51.550;7.060;2023-08-20T08:14:19;101887.28;;;21.42;93.03
6208;BME280;3137;51.550;7.060;2023-08-20T08:16:46;101892.19;;;21.54;92.63
6208;BME280;3137;51.550;7.060;2023-08-20T08:19:13;101893.53;;;21.64;92.43
6208;BME280;3137;51.550;7.060;2023-08-20T08:21:41;101893.88;;;21.76;91.83
6208;BME280;3137;51.550;7.060;2023-08-20T08:24:07;101891.41;;;21.81;91.25
6208;BME280;3137;51.550;7.060;2023-08-20T08:26:35;101892.69;;;21.85;90.91
6208;BME280;3137;51.550;7.060;2023-08-20T08:29:02;101888.00;;;22.00;90.57
6208;BME280;3137;51.550;7.060;2023-08-20T08:31:29;101890.84;;;22.13;90.38
6208;BME280;3137;51.550;7.060;2023-08-20T08:33:56;101886.06;;;22.22;89.77
6208;BME280;3137;51.550;7.060;2023-08-20T08:36:22;101892.00;;;22.32;89.12
6208;BME280;3137;51.550;7.060;2023-08-20T08:38:51;101892.84;;;22.32;88.06
6208;BME280;3137;51.550;7.060;2023-08-20T08:41:21;101901.06;;;22.39;87.99
6208;BME280;3137;51.550;7.060;2023-08-20T08:43:49;101895.63;;;22.46;87.75
6208;BME280;3137;51.550;7.060;2023-08-20T08:46:16;101897.59;;;22.58;87.13
6208;BME280;3137;51.550;7.060;2023-08-20T08:48:44;101895.94;;;22.64;86.34
6208;BME280;3137;51.550;7.060;2023-08-20T08:51:14;101898.06;;;22.68;85.65
6208;BME280;3137;51.550;7.060;2023-08-20T08:53:43;101898.34;;;22.80;85.90
6208;BME280;3137;51.550;7.060;2023-08-20T08:56:10;101890.22;;;22.93;85.06
6208;BME280;3137;51.550;7.060;2023-08-20T08:58:37;101889.47;;;23.12;82.73
6208;BME280;3137;51.550;7.060;2023-08-20T09:01:04;101893.25;;;23.11;81.28
6208;BME280;3137;51.550;7.060;2023-08-20T09:03:30;101892.38;;;23.11;81.59
6208;BME280;3137;51.550;7.060;2023-08-20T09:06:00;101898.47;;;23.13;81.30
6208;BME280;3137;51.550;7.060;2023-08-20T09:08:30;101895.34;;;23.22;81.54
6208;BME280;3137;51.550;7.060;2023-08-20T09:10:58;101898.31;;;23.34;79.39
6208;BME280;3137;51.550;7.060;2023-08-20T09:13:32;101890.13;;;23.34;79.93
6208;BME280;3137;51.550;7.060;2023-08-20T09:15:59;101897.03;;;23.30;78.72
6208;BME280;3137;51.550;7.060;2023-08-20T09:18:26;101897.47;;;23.27;78.05
6208;BME280;3137;51.550;7.060;2023-08-20T09:20:52;101890.75;;;23.16;77.94
6208;BME280;3137;51.550;7.060;2023-08-20T09:23:19;101897.28;;;23.35;78.27
6208;BME280;3137;51.550;7.060;2023-08-20T09:25:45;101893.06;;;23.33;79.50
6208;BME280;3137;51.550;7.060;2023-08-20T09:28:14;101889.91;;;23.22;79.68
6208;BME280;3137;51.550;7.060;2023-08-20T09:30:54;101901.63;;;23.10;80.13
6208;BME280;3137;51.550;7.060;2023-08-20T09:33:21;101898.28;;;23.08;80.11
6208;BME280;3137;51.550;7.060;2023-08-20T09:35:49;101895.75;;;23.13;79.20
6208;BME280;3137;51.550;7.060;2023-08-20T09:38:19;101903.31;;;23.17;78.80
6208;BME280;3137;51.550;7.060;2023-08-20T09:40:53;101906.06;;;23.31;77.03
6208;BME280;3137;51.550;7.060;2023-08-20T09:43:29;101899.56;;;23.32;75.77
6208;BME280;3137;51.550;7.060;2023-08-20T09:46:00;101905.03;;;23.32;75.98
6208;BME280;3137;51.550;7.060;2023-08-20T09:48:33;101901.25;;;23.39;74.93
6208;BME280;3137;51.550;7.060;2023-08-20T09:51:04;101902.19;;;23.66;73.42
6208;BME280;3137;51.550;7.060;2023-08-20T09:53:35;101903.44;;;23.70;74.68
6208;BME280;3137;51.550;7.060;2023-08-20T09:56:10;101901.34;;;23.85;72.49
6208;BME280;3137;51.550;7.060;2023-08-20T09:58:39;101899.22;;;23.94;72.77
6208;BME280;3137;51.550;7.060;2023-08-20T10:01:06;101907.63;;;23.99;71.94
6208;BME280;3137;51.550;7.060;2023-08-20T10:03:33;101913.28;;;24.10;73.22
6208;BME280;3137;51.550;7.060;2023-08-20T10:06:02;101908.06;;;23.96;72.38
6208;BME280;3137;51.550;7.060;2023-08-20T10:08:28;101913.13;;;23.92;72.48
6208;BME280;3137;51.550;7.060;2023-08-20T10:10:55;101913.31;;;23.91;72.67
6208;BME280;3137;51.550;7.060;2023-08-20T10:13:22;101917.09;;;23.77;73.34
6208;BME280;3137;51.550;7.060;2023-08-20T10:15:49;101909.31;;;23.74;73.56
6208;BME280;3137;51.550;7.060;2023-08-20T10:18:19;101905.13;;;23.78;73.40
6208;BME280;3137;51.550;7.060;2023-08-20T10:20:46;101907.00;;;23.90;75.01
6208;BME280;3137;51.550;7.060;2023-08-20T10:23:12;101904.91;;;23.99;75.14
6208;BME280;3137;51.550;7.060;2023-08-20T10:25:42;101913.94;;;24.12;75.83
6208;BME280;3137;51.550;7.060;2023-08-20T10:28:19;101914.56;;;24.28;72.38
6208;BME280;3137;51.550;7.060;2023-08-20T10:31:08;101913.72;;;24.34;71.98
6208;BME280;3137;51.550;7.060;2023-08-20T10:33:37;101901.53;;;24.30;70.41
6208;BME280;3137;51.550;7.060;2023-08-20T10:36:16;101902.38;;;24.30;72.36
6208;BME280;3137;51.550;7.060;2023-08-20T10:38:46;101906.34;;;24.41;69.45
6208;BME280;3137;51.550;7.060;2023-08-20T10:41:13;101908.66;;;24.37;71.07
6208;BME280;3137;51.550;7.060;2023-08-20T10:43:47;101916.47;;;24.21;71.16
6208;BME280;3137;51.550;7.060;2023-08-20T10:49:00;101905.53;;;24.14;72.99
6208;BME280;3137;51.550;7.060;2023-08-20T10:56:38;101906.34;;;24.14;70.18
6208;BME280;3137;51.550;7.060;2023-08-20T10:59:09;101909.34;;;24.26;70.49
6208;BME280;3137;51.550;7.060;2023-08-20T11:01:39;101909.91;;;24.41;70.38
6208;BME280;3137;51.550;7.060;2023-08-20T11:04:06;101911.81;;;24.47;70.18
6208;BME280;3137;51.550;7.060;2023-08-20T11:06:33;101911.56;;;24.49;67.70
6208;BME280;3137;51.550;7.060;2023-08-20T11:09:01;101913.22;;;24.63;68.83
6208;BME280;3137;51.550;7.060;2023-08-20T11:11:29;101915.16;;;24.56;70.59
6208;BME280;3137;51.550;7.060;2023-08-20T11:13:56;101916.41;;;24.53;69.10
6208;BME280;3137;51.550;7.060;2023-08-20T11:16:23;101913.91;;;24.45;69.46
6208;BME280;3137;51.550;7.060;2023-08-20T11:18:52;101916.25;;;24.35;68.47
6208;BME280;3137;51.550;7.060;2023-08-20T11:21:19;101916.06;;;24.30;68.42
6208;BME280;3137;51.550;7.060;2023-08-20T11:23:46;101915.63;;;24.33;67.86
6208;BME280;3137;51.550;7.060;2023-08-20T11:26:17;101918.97;;;24.29;69.79
6208;BME280;3137;51.550;7.060;2023-08-20T11:28:47;101916.97;;;24.75;67.13
6208;BME280;3137;51.550;7.060;2023-08-20T11:31:13;101909.66;;;24.69;64.60
6208;BME280;3137;51.550;7.060;2023-08-20T11:33:40;101920.75;;;24.74;65.32
6208;BME280;3137;51.550;7.060;2023-08-20T11:36:07;101907.06;;;24.81;67.03
6208;BME280;3137;51.550;7.060;2023-08-20T11:38:34;101907.31;;;24.66;66.35
6208;BME280;3137;51.550;7.060;2023-08-20T11:41:00;101910.88;;;24.73;67.93
6208;BME280;3137;51.550;7.060;2023-08-20T11:43:28;101905.19;;;24.75;63.88
6208;BME280;3137;51.550;7.060;2023-08-20T11:45:54;101906.84;;;24.82;58.45
6208;BME280;3137;51.550;7.060;2023-08-20T11:48:22;101902.00;;;24.84;58.74
6208;BME280;3137;51.550;7.060;2023-08-20T11:50:51;101908.53;;;24.90;59.63
6208;BME280;3137;51.550;7.060;2023-08-20T11:53:22;101912.09;;;24.84;60.30
6208;BME280;3137;51.550;7.060;2023-08-20T11:55:51;101911.91;;;24.79;60.96
6208;BME280;3137;51.550;7.060;2023-08-20T11:58:18;101898.66;;;24.76;63.98
6208;BME280;3137;51.550;7.060;2023-08-20T12:00:48;101907.50;;;24.78;63.62
6208;BME280;3137;51.550;7.060;2023-08-20T12:03:18;101899.25;;;24.84;63.97
6208;BME280;3137;51.550;7.060;2023-08-20T12:05:44;101895.28;;;24.80;65.26
6208;BME280;3137;51.550;7.060;2023-08-20T12:08:15;101892.31;;;24.88;65.40
6208;BME280;3137;51.550;7.060;2023-08-20T12:10:43;101900.94;;;24.92;66.92
6208;BME280;3137;51.550;7.060;2023-08-20T12:13:09;101890.16;;;25.04;65.53
6208;BME280;3137;51.550;7.060;2023-08-20T12:15:36;101897.09;;;25.06;65.62
6208;BME280;3137;51.550;7.060;2023-08-20T12:18:04;101895.25;;;24.93;64.60
6208;BME280;3137;51.550;7.060;2023-08-20T12:20:33;101887.28;;;24.85;64.45
6208;BME280;3137;51.550;7.060;2023-08-20T12:23:02;101891.09;;;24.71;65.30
6208;BME280;3137;51.550;7.060;2023-08-20T12:25:31;101890.06;;;24.72;66.26
6208;BME280;3137;51.550;7.060;2023-08-20T12:27:58;101889.00;;;24.67;66.05
6208;BME280;3137;51.550;7.060;2023-08-20T12:30:25;101887.31;;;24.72;65.40
6208;BME280;3137;51.550;7.060;2023-08-20T12:32:51;101883.53;;;25.18;66.07
6208;BME280;3137;51.550;7.060;2023-08-20T12:35:18;101883.25;;;25.32;63.17
6208;BME280;3137;51.550;7.060;2023-08-20T12:37:44;101884.66;;;25.41;65.47
6208;BME280;3137;51.550;7.060;2023-08-20T12:40:11;101874.53;;;25.42;62.82
6208;BME280;3137;51.550;7.060;2023-08-20T12:42:38;101872.72;;;25.29;62.69
6208;BME280;3137;51.550;7.060;2023-08-20T12:45:08;101875.31;;;25.18;63.16
6208;BME280;3137;51.550;7.060;2023-08-20T12:47:36;101877.09;;;25.06;64.22
6208;BME280;3137;51.550;7.060;2023-08-20T12:50:03;101870.44;;;24.88;64.91
6208;BME280;3137;51.550;7.060;2023-08-20T12:52:32;101872.75;;;24.78;65.42
6208;BME280;3137;51.550;7.060;2023-08-20T12:54:58;101876.34;;;24.79;64.47
6208;BME280;3137;51.550;7.060;2023-08-20T12:57:25;101866.25;;;24.86;63.63
6208;BME280;3137;51.550;7.060;2023-08-20T12:59:51;101865.03;;;25.13;63.60
6208;BME280;3137;51.550;7.060;2023-08-20T13:02:19;101863.19;;;25.07;62.58
6208;BME280;3137;51.550;7.060;2023-08-20T13:04:47;101860.47;;;25.07;62.26
6208;BME280;3137;51.550;7.060;2023-08-20T13:07:14;101859.50;;;24.88;62.15
6208;BME280;3137;51.550;7.060;2023-08-20T13:09:41;101867.91;;;24.87;63.49
6208;BME280;3137;51.550;7.060;2023-08-20T13:12:09;101862.03;;;24.90;63.54
6208;BME280;3137;51.550;7.060;2023-08-20T13:14:40;101866.94;;;25.13;62.03
6208;BME280;3137;51.550;7.060;2023-08-20T13:17:07;101861.38;;;25.26;62.20
6208;BME280;3137;51.550;7.060;2023-08-20T13:19:34;101864.03;;;25.39;59.25
6208;BME280;3137;51.550;7.060;2023-08-20T13:22:00;101859.22;;;25.34;60.54